createdAt,value
2019-01-27T00:01:47.736Z,38.60
2019-01-27T00:04:18.988Z,41.70
2019-01-27T00:06:50.551Z,38.50
2019-01-27T00:09:21.892Z,37.90
2019-01-27T00:11:53.338Z,37.73
2019-01-27T00:14:24.919Z,40.47
2019-01-27T00:16:56.547Z,35.70
2019-01-27T00:19:28.025Z,37.90
2019-01-27T00:21:59.476Z,34.80
2019-01-27T00:24:30.831Z,38.20
2019-01-27T00:27:02.393Z,37.30
2019-01-27T00:29:33.854Z,36.13
2019-01-27T00:32:05.801Z,37.20
2019-01-27T00:34:37.237Z,36.37
2019-01-27T00:37:08.696Z,38.17
2019-01-27T00:39:40.453Z,36.90
2019-01-27T00:42:11.812Z,36.73
2019-01-27T00:44:43.417Z,35.83
2019-01-27T00:47:15.029Z,35.87
2019-01-27T00:49:46.753Z,35.97
2019-01-27T00:52:18.535Z,35.23
2019-01-27T21:49:02.057Z,52.20
2019-01-27T21:51:33.197Z,59.43
2019-01-27T21:54:04.352Z,55.83
2019-01-27T21:56:35.372Z,60.27
2019-01-27T21:59:07.192Z,52.03
2019-01-27T22:01:38.580Z,48.20
2019-01-27T22:04:10.299Z,47.47
2019-01-27T22:06:45.021Z,47.50
2019-01-27T22:09:16.513Z,44.07
2019-01-27T22:11:47.805Z,41.60
2019-01-27T22:14:19.361Z,39.43
2019-01-27T22:16:50.812Z,36.90
2019-01-27T22:19:22.151Z,36.53
2019-01-27T22:21:53.455Z,33.07
2019-01-27T22:24:24.983Z,36.10
2019-01-27T22:26:56.280Z,30.20
2019-01-27T22:29:27.636Z,29.77
2019-01-27T22:31:58.970Z,30.63
2019-01-27T22:34:30.436Z,27.13
2019-01-27T22:37:01.799Z,26.73
2019-01-27T22:39:33.971Z,27.47
2019-01-27T22:42:07.970Z,26.67
2019-01-27T22:44:42.678Z,24.70
2019-01-27T22:47:14.098Z,25.20
2019-01-27T22:49:47.325Z,24.43
2019-01-27T22:52:18.709Z,22.40
